Time;durP1;ratioP1;P1;durP2;ratioP2;P2;SDS_P1;SDS_P2;PMS_P1;PMS_P2;Temp;Humidity;BMP_temperature;BMP_pressure;BME280_temperature;BME280_humidity;BME280_pressure;Samples;Min_cycle;Max_cycle;Signal;HPM_P1;HPM_P2
2022/12/05 00:01:10;;;;;;;51.28;17.35;;;;;;;;;;5066135;28;20043;-53
2022/12/05 00:03:36;;;;;;;43.50;16.40;;;;;;;;;;5062037;28;20045;-50
2022/12/05 00:06:03;;;;;;;52.08;16.77;;;;;;;;;;5067388;28;20052;-51
2022/12/05 00:08:31;;;;;;;39.22;16.55;;;;;;;;;;5067833;28;20072;-48
2022/12/05 00:10:57;;;;;;;41.70;13.98;;;;;;;;;;5066248;28;20054;-49
2022/12/05 00:13:24;;;;;;;59.38;18.15;;;;;;;;;;5068334;28;20041;-52
2022/12/05 00:15:50;;;;;;;41.28;16.25;;;;;;;;;;5069322;28;20245;-52
2022/12/05 00:18:17;;;;;;;61.92;18.83;;;;;;;;;;5070097;28;20032;-50
2022/12/05 00:20:47;;;;;;;54.28;19.98;;;;;;;;;;5071064;28;20051;-50
2022/12/05 00:23:14;;;;;;;50.95;17.27;;;;;;;;;;5069574;28;20052;-50
2022/12/05 00:25:41;;;;;;;59.72;18.20;;;;;;;;;;5069476;28;20036;-52
2022/12/05 00:28:07;;;;;;;49.65;16.75;;;;;;;;;;5070337;28;20032;-52
2022/12/05 00:30:34;;;;;;;49.30;16.70;;;;;;;;;;5070010;28;20039;-51
2022/12/05 00:33:00;;;;;;;55.90;18.58;;;;;;;;;;5071883;28;20044;-51
2022/12/05 00:35:27;;;;;;;39.15;16.65;;;;;;;;;;5070908;28;20040;-50
2022/12/05 00:37:53;;;;;;;40.05;15.27;;;;;;;;;;5066029;28;20044;-51
2022/12/05 00:40:20;;;;;;;52.55;17.52;;;;;;;;;;5068743;28;20037;-51
2022/12/05 00:42:46;;;;;;;48.03;16.58;;;;;;;;;;5069636;28;20115;-48
2022/12/05 00:45:17;;;;;;;57.97;16.30;;;;;;;;;;5068509;28;20501;-50
2022/12/05 00:47:44;;;;;;;48.15;16.65;;;;;;;;;;5070344;28;20044;-51
2022/12/05 00:50:10;;;;;;;53.30;16.90;;;;;;;;;;5068884;28;20047;-52
2022/12/05 00:52:37;;;;;;;48.47;17.08;;;;;;;;;;5065209;28;20041;-49
2022/12/05 00:55:04;;;;;;;60.22;17.98;;;;;;;;;;5069537;28;20036;-50
2022/12/05 00:57:30;;;;;;;55.08;18.70;;;;;;;;;;5070084;28;20040;-49
2022/12/05 00:59:57;;;;;;;37.95;15.23;;;;;;;;;;5070726;28;20128;-52
2022/12/05 01:02:24;;;;;;;50.80;17.83;;;;;;;;;;5069018;28;20036;-49
2022/12/05 01:04:50;;;;;;;64.80;16.55;;;;;;;;;;5068870;28;20044;-52
2022/12/05 01:07:17;;;;;;;40.53;16.08;;;;;;;;;;5069471;28;20048;-51
2022/12/05 01:09:43;;;;;;;41.40;16.13;;;;;;;;;;5069159;28;20029;-51
2022/12/05 01:12:10;;;;;;;61.13;18.42;;;;;;;;;;5067146;28;20048;-50
2022/12/05 01:14:36;;;;;;;58.75;18.50;;;;;;;;;;5069450;28;20035;-50
2022/12/05 01:17:03;;;;;;;53.92;16.48;;;;;;;;;;5068148;28;20055;-49
2022/12/05 01:19:30;;;;;;;42.28;15.50;;;;;;;;;;5068509;28;20051;-48
2022/12/05 01:21:58;;;;;;;47.70;15.90;;;;;;;;;;5068267;28;20040;-50
2022/12/05 01:24:25;;;;;;;41.30;15.70;;;;;;;;;;5069080;28;20067;-50
2022/12/05 01:26:52;;;;;;;50.58;17.20;;;;;;;;;;5070348;28;20122;-52
2022/12/05 01:29:20;;;;;;;47.38;16.50;;;;;;;;;;5069137;28;20045;-51
2022/12/05 01:31:47;;;;;;;50.10;16.23;;;;;;;;;;5067791;28;20152;-49
2022/12/05 01:34:14;;;;;;;55.58;17.38;;;;;;;;;;5067521;28;20032;-48
2022/12/05 01:36:41;;;;;;;72.07;19.73;;;;;;;;;;5068436;28;20799;-50
2022/12/05 01:39:08;;;;;;;50.67;18.13;;;;;;;;;;5069583;28;20041;-48
2022/12/05 01:41:36;;;;;;;47.17;16.42;;;;;;;;;;5069455;28;20049;-50
2022/12/05 01:44:12;;;;;;;47.20;17.83;;;;;;;;;;5065820;28;20036;-51
2022/12/05 01:46:43;;;;;;;39.72;15.57;;;;;;;;;;5068343;28;20044;-48
2022/12/05 01:49:12;;;;;;;59.25;17.52;;;;;;;;;;5066917;28;20036;-49
2022/12/05 01:51:41;;;;;;;41.88;17.60;;;;;;;;;;5065176;28;20083;-48
2022/12/05 01:54:09;;;;;;;50.83;17.63;;;;;;;;;;5069682;28;20114;-48
2022/12/05 01:56:35;;;;;;;46.85;16.67;;;;;;;;;;5069258;28;20036;-53
2022/12/05 01:59:04;;;;;;;48.20;17.58;;;;;;;;;;5068445;28;20110;-52
2022/12/05 02:01:30;;;;;;;67.97;19.88;;;;;;;;;;5066689;28;20040;-51
2022/12/05 02:03:57;;;;;;;63.55;18.27;;;;;;;;;;5067834;28;20136;-50
2022/12/05 02:06:25;;;;;;;59.25;17.42;;;;;;;;;;5081367;28;20477;-49
2022/12/05 02:08:52;;;;;;;40.67;17.13;;;;;;;;;;5069473;28;20048;-50
2022/12/05 02:11:19;;;;;;;62.83;19.40;;;;;;;;;;5066612;28;20080;-50
2022/12/05 02:13:55;;;;;;;59.53;19.20;;;;;;;;;;5067139;28;20047;-51
2022/12/05 02:16:34;;;;;;;51.58;18.38;;;;;;;;;;5062304;28;20512;-51
2022/12/05 02:19:01;;;;;;;38.42;16.92;;;;;;;;;;5068268;28;20041;-52
2022/12/05 02:21:27;;;;;;;47.97;17.58;;;;;;;;;;5067919;28;20054;-51
2022/12/05 02:24:12;;;;;;;39.78;15.50;;;;;;;;;;5069691;28;20126;-51
2022/12/05 02:26:55;;;;;;;36.10;14.73;;;;;;;;;;5068254;28;20041;-50
2022/12/05 02:29:32;;;;;;;48.20;16.63;;;;;;;;;;5066616;28;20131;-49
2022/12/05 02:32:01;;;;;;;53.47;16.52;;;;;;;;;;5066828;28;20041;-50
2022/12/05 02:34:32;;;;;;;57.78;17.58;;;;;;;;;;5065994;28;20162;-49
2022/12/05 02:37:02;;;;;;;45.53;16.08;;;;;;;;;;5066720;28;20447;-50
2022/12/05 02:39:32;;;;;;;45.30;16.50;;;;;;;;;;5066726;28;20087;-49
2022/12/05 02:42:14;;;;;;;44.35;16.58;;;;;;;;;;5069187;28;20048;-48
2022/12/05 02:44:48;;;;;;;43.38;16.00;;;;;;;;;;5068614;28;20497;-48
2022/12/05 02:47:16;;;;;;;45.47;16.58;;;;;;;;;;5067604;28;20044;-49
2022/12/05 02:49:43;;;;;;;44.13;17.42;;;;;;;;;;5063935;28;20047;-50
2022/12/05 02:52:12;;;;;;;56.80;17.45;;;;;;;;;;5067819;28;20491;-50
2022/12/05 02:54:41;;;;;;;40.75;14.77;;;;;;;;;;5068481;28;20074;-52
2022/12/05 02:57:08;;;;;;;43.50;16.88;;;;;;;;;;5068004;28;20396;-51
2022/12/05 02:59:35;;;;;;;58.50;16.48;;;;;;;;;;5067697;28;20068;-48
2022/12/05 03:02:02;;;;;;;48.50;16.13;;;;;;;;;;5066318;28;20102;-48
2022/12/05 03:04:30;;;;;;;40.70;15.95;;;;;;;;;;5065150;28;20503;-49
2022/12/05 03:07:04;;;;;;;44.55;16.48;;;;;;;;;;5066321;28;20052;-51
2022/12/05 03:09:42;;;;;;;42.13;15.05;;;;;;;;;;5067061;28;20575;-50
2022/12/05 03:12:12;;;;;;;68.20;18.10;;;;;;;;;;5067906;28;20063;-50
2022/12/05 03:14:42;;;;;;;38.67;14.48;;;;;;;;;;5067688;28;20489;-51
2022/12/05 03:17:10;;;;;;;40.88;15.88;;;;;;;;;;5067817;28;20044;-48
2022/12/05 03:19:46;;;;;;;44.30;17.00;;;;;;;;;;5064449;28;20358;-47
2022/12/05 03:22:17;;;;;;;49.08;17.33;;;;;;;;;;5067109;28;20049;-49
2022/12/05 03:24:44;;;;;;;50.60;16.20;;;;;;;;;;5067804;28;20040;-53
2022/12/05 03:27:24;;;;;;;59.30;16.30;;;;;;;;;;5066956;28;20033;-49
2022/12/05 03:29:56;;;;;;;38.40;13.70;;;;;;;;;;5068239;28;20460;-51
2022/12/05 03:32:26;;;;;;;45.60;16.33;;;;;;;;;;5066591;28;20543;-49
2022/12/05 03:35:00;;;;;;;33.70;14.88;;;;;;;;;;5062245;28;20102;-49
2022/12/05 03:37:30;;;;;;;46.38;16.77;;;;;;;;;;5066559;28;20109;-52
2022/12/05 03:40:10;;;;;;;59.13;17.27;;;;;;;;;;5066071;28;20040;-51
2022/12/05 03:42:38;;;;;;;64.93;17.90;;;;;;;;;;5058793;28;20066;-49
2022/12/05 03:45:08;;;;;;;46.08;16.70;;;;;;;;;;5066050;28;20510;-48
2022/12/05 03:47:40;;;;;;;38.97;15.50;;;;;;;;;;5067114;28;20056;-51
2022/12/05 03:50:11;;;;;;;50.92;16.63;;;;;;;;;;5070321;28;20040;-49
2022/12/05 03:52:52;;;;;;;34.80;14.30;;;;;;;;;;5070330;28;20040;-48
2022/12/05 03:55:40;;;;;;;34.95;14.57;;;;;;;;;;5069482;28;20396;-53
2022/12/05 03:58:11;;;;;;;46.63;15.60;;;;;;;;;;5070157;28;20098;-50
2022/12/05 04:00:40;;;;;;;61.28;16.67;;;;;;;;;;5070146;28;20098;-49
2022/12/05 04:03:19;;;;;;;51.25;15.77;;;;;;;;;;5068425;28;20462;-52
2022/12/05 04:05:46;;;;;;;36.55;14.50;;;;;;;;;;5071354;28;20279;-50
2022/12/05 04:08:17;;;;;;;42.50;14.05;;;;;;;;;;5069945;28;20428;-50
2022/12/05 04:10:50;;;;;;;36.88;14.20;;;;;;;;;;5070199;28;20060;-53
2022/12/05 04:13:36;;;;;;;41.05;15.43;;;;;;;;;;5070896;28;20062;-49
2022/12/05 04:18:57;;;;;;;55.78;17.90;;;;;;;;;;4999456;28;20057;-50
2022/12/05 04:21:38;;;;;;;58.05;16.67;;;;;;;;;;4999322;28;20048;-50
2022/12/05 04:26:59;;;;;;;43.55;15.35;;;;;;;;;;4998689;28;20050;-50
2022/12/05 04:29:28;;;;;;;41.63;15.00;;;;;;;;;;4998461;28;20048;-50
2022/12/05 04:31:57;;;;;;;30.90;14.32;;;;;;;;;;5002131;28;20110;-52
2022/12/05 04:34:27;;;;;;;48.50;17.25;;;;;;;;;;5001432;28;20057;-49
2022/12/05 04:37:02;;;;;;;36.42;13.52;;;;;;;;;;4999272;28;20125;-52
2022/12/05 04:39:40;;;;;;;57.65;16.98;;;;;;;;;;4999981;28;20092;-52
2022/12/05 04:42:09;;;;;;;43.88;15.20;;;;;;;;;;5000503;28;20085;-53
2022/12/05 04:44:42;;;;;;;40.72;14.63;;;;;;;;;;5000369;28;20124;-52
2022/12/05 04:47:10;;;;;;;36.85;13.80;;;;;;;;;;4999040;28;20050;-51
2022/12/05 04:49:37;;;;;;;35.90;13.95;;;;;;;;;;5005978;28;20545;-48
2022/12/05 04:52:06;;;;;;;38.10;14.25;;;;;;;;;;4998383;28;20057;-49
2022/12/05 04:54:39;;;;;;;56.45;14.75;;;;;;;;;;5069196;28;20164;-52
2022/12/05 04:57:18;;;;;;;35.35;12.25;;;;;;;;;;5070370;28;20052;-49
2022/12/05 04:59:44;;;;;;;31.85;12.95;;;;;;;;;;5070679;28;20052;-53
2022/12/05 05:02:13;;;;;;;39.58;14.75;;;;;;;;;;5069904;28;20036;-51
2022/12/05 05:04:41;;;;;;;36.50;14.32;;;;;;;;;;5069904;28;20035;-49
2022/12/05 05:07:09;;;;;;;47.88;14.82;;;;;;;;;;5070100;28;20055;-48
2022/12/05 05:09:35;;;;;;;37.95;13.45;;;;;;;;;;5066842;28;20469;-50
2022/12/05 05:12:03;;;;;;;39.22;13.50;;;;;;;;;;5066664;28;20052;-49
2022/12/05 05:14:29;;;;;;;38.33;14.63;;;;;;;;;;5068585;28;20044;-50
2022/12/05 05:16:56;;;;;;;40.72;13.80;;;;;;;;;;5069055;28;20512;-49
2022/12/05 05:19:22;;;;;;;43.10;14.73;;;;;;;;;;5064987;28;20036;-52
2022/12/05 05:21:49;;;;;;;36.20;14.90;;;;;;;;;;5067682;28;20036;-50
2022/12/05 05:24:17;;;;;;;43.00;15.57;;;;;;;;;;5069227;28;20058;-49
2022/12/05 05:26:44;;;;;;;36.40;14.93;;;;;;;;;;5067810;28;20051;-48
2022/12/05 05:29:11;;;;;;;45.45;16.10;;;;;;;;;;5069079;28;20352;-51
2022/12/05 05:31:38;;;;;;;37.90;14.15;;;;;;;;;;5068806;28;20040;-52
2022/12/05 05:34:05;;;;;;;39.47;14.90;;;;;;;;;;5067982;28;20045;-47
2022/12/05 05:36:35;;;;;;;40.17;14.02;;;;;;;;;;5065992;28;20098;-50
2022/12/05 05:39:02;;;;;;;39.35;12.95;;;;;;;;;;5070269;28;20037;-52
2022/12/05 05:41:30;;;;;;;39.63;12.93;;;;;;;;;;5067954;28;20050;-49
2022/12/05 05:43:57;;;;;;;34.25;13.57;;;;;;;;;;5067893;28;20139;-50
2022/12/05 05:46:25;;;;;;;35.17;12.48;;;;;;;;;;5069049;28;20037;-50
2022/12/05 05:48:52;;;;;;;38.95;12.25;;;;;;;;;;5069917;28;20067;-49
2022/12/05 05:51:19;;;;;;;45.38;14.30;;;;;;;;;;5067898;28;20116;-50
2022/12/05 05:53:46;;;;;;;34.08;13.02;;;;;;;;;;5070016;28;20049;-52
2022/12/05 05:56:14;;;;;;;35.05;12.65;;;;;;;;;;5064624;28;20068;-53
2022/12/05 05:58:47;;;;;;;35.25;12.85;;;;;;;;;;5068579;28;20049;-48
2022/12/05 06:01:14;;;;;;;36.90;13.25;;;;;;;;;;5068624;28;20119;-48
2022/12/05 06:03:42;;;;;;;47.60;13.90;;;;;;;;;;5067023;28;20519;-48
2022/12/05 06:06:10;;;;;;;27.67;11.68;;;;;;;;;;5067623;28;20044;-46
2022/12/05 06:08:38;;;;;;;31.00;12.05;;;;;;;;;;5069191;28;20518;-47
2022/12/05 06:11:12;;;;;;;40.03;13.07;;;;;;;;;;5067416;28;20037;-48
2022/12/05 06:13:39;;;;;;;37.67;13.15;;;;;;;;;;5067516;28;20037;-48
2022/12/05 06:16:07;;;;;;;38.00;12.20;;;;;;;;;;5068001;28;20040;-47
2022/12/05 06:18:33;;;;;;;29.63;11.70;;;;;;;;;;5067323;28;20115;-47
2022/12/05 06:21:00;;;;;;;28.20;11.82;;;;;;;;;;5069155;28;20029;-47
2022/12/05 06:23:27;;;;;;;28.35;12.80;;;;;;;;;;5067761;28;20047;-46
2022/12/05 06:25:54;;;;;;;48.80;14.77;;;;;;;;;;5067391;28;20089;-49
2022/12/05 06:28:22;;;;;;;37.65;13.00;;;;;;;;;;5067117;28;20532;-47
2022/12/05 06:30:48;;;;;;;39.63;13.90;;;;;;;;;;5066604;28;20044;-47
2022/12/05 06:33:15;;;;;;;42.22;14.30;;;;;;;;;;5068248;28;20040;-48
2022/12/05 06:35:41;;;;;;;58.83;15.15;;;;;;;;;;5068625;28;20048;-47
2022/12/05 06:38:08;;;;;;;34.42;12.75;;;;;;;;;;5068985;28;20036;-49
2022/12/05 06:40:39;;;;;;;39.63;13.43;;;;;;;;;;5067712;28;20032;-49
2022/12/05 06:43:06;;;;;;;39.03;14.35;;;;;;;;;;5067782;28;20036;-47
2022/12/05 06:45:32;;;;;;;44.10;14.70;;;;;;;;;;5068147;28;20044;-47
2022/12/05 06:47:59;;;;;;;37.05;13.75;;;;;;;;;;5069772;28;20066;-47
2022/12/05 06:50:25;;;;;;;39.05;14.75;;;;;;;;;;5066979;28;20037;-47
2022/12/05 06:52:52;;;;;;;38.33;15.05;;;;;;;;;;5068020;28;20150;-48
2022/12/05 06:55:18;;;;;;;44.45;14.73;;;;;;;;;;5067667;28;20550;-52
2022/12/05 06:57:45;;;;;;;43.17;14.57;;;;;;;;;;5066799;28;20040;-48
2022/12/05 07:02:57;;;;;;;27.38;12.68;;;;;;;;;;5068873;28;20044;-46
2022/12/05 07:05:23;;;;;;;33.65;13.82;;;;;;;;;;5067757;28;20056;-51
2022/12/05 07:07:50;;;;;;;34.28;13.93;;;;;;;;;;5068795;28;20045;-50
2022/12/05 07:10:17;;;;;;;61.53;15.82;;;;;;;;;;5066981;28;20036;-52
2022/12/05 07:12:43;;;;;;;36.72;13.52;;;;;;;;;;5067627;28;20052;-49
2022/12/05 07:15:09;;;;;;;45.80;14.18;;;;;;;;;;5068607;28;20488;-47
2022/12/05 07:17:37;;;;;;;40.53;13.75;;;;;;;;;;5067223;28;20044;-48
2022/12/05 07:20:05;;;;;;;46.17;15.38;;;;;;;;;;5066689;28;20049;-48
2022/12/05 07:22:34;;;;;;;37.17;13.43;;;;;;;;;;5069313;28;20151;-47
2022/12/05 07:25:00;;;;;;;45.13;14.93;;;;;;;;;;5071594;28;20044;-48
2022/12/05 07:27:27;;;;;;;42.42;15.55;;;;;;;;;;5072365;28;20049;-47
2022/12/05 07:29:54;;;;;;;35.10;12.18;;;;;;;;;;5073472;28;20075;-46
2022/12/05 07:32:21;;;;;;;49.08;14.88;;;;;;;;;;5069442;28;20110;-50
2022/12/05 07:34:47;;;;;;;32.90;13.15;;;;;;;;;;5070739;28;20068;-47
2022/12/05 07:37:20;;;;;;;45.85;13.90;;;;;;;;;;5071750;28;20143;-46
2022/12/05 07:39:47;;;;;;;36.92;12.73;;;;;;;;;;5070288;28;20404;-51
2022/12/05 07:42:14;;;;;;;55.08;15.65;;;;;;;;;;5071525;28;20091;-47
2022/12/05 07:44:40;;;;;;;40.63;14.48;;;;;;;;;;5072670;28;20054;-48
2022/12/05 07:47:07;;;;;;;35.92;14.45;;;;;;;;;;5072113;28;20068;-48
2022/12/05 07:49:33;;;;;;;43.00;15.43;;;;;;;;;;5071486;28;20064;-51
2022/12/05 07:52:00;;;;;;;45.00;16.08;;;;;;;;;;5071432;28;20064;-48
2022/12/05 07:54:26;;;;;;;51.58;15.45;;;;;;;;;;5071479;28;20046;-47
2022/12/05 07:56:53;;;;;;;30.00;13.63;;;;;;;;;;5072731;28;20059;-48
2022/12/05 07:59:19;;;;;;;43.13;16.63;;;;;;;;;;5068751;28;20048;-47
2022/12/05 08:01:46;;;;;;;39.75;15.13;;;;;;;;;;5070811;28;20036;-46
2022/12/05 08:04:13;;;;;;;56.22;16.13;;;;;;;;;;5062416;28;20032;-47
2022/12/05 08:06:41;;;;;;;38.45;14.10;;;;;;;;;;5068467;28;20059;-47
2022/12/05 08:09:07;;;;;;;34.97;14.40;;;;;;;;;;5069874;28;20040;-50
2022/12/05 08:11:35;;;;;;;37.30;16.75;;;;;;;;;;5071275;28;20119;-48
2022/12/05 08:14:02;;;;;;;60.60;17.30;;;;;;;;;;5070039;28;20040;-49
2022/12/05 08:16:29;;;;;;;36.58;16.38;;;;;;;;;;5070233;28;20477;-48
2022/12/05 08:18:57;;;;;;;37.15;15.63;;;;;;;;;;5069422;28;20548;-51
2022/12/05 08:21:24;;;;;;;53.53;16.73;;;;;;;;;;5070650;28;20102;-46
2022/12/05 08:23:51;;;;;;;38.03;15.25;;;;;;;;;;5070322;28;20403;-47
2022/12/05 08:26:25;;;;;;;59.05;20.80;;;;;;;;;;5070138;28;20040;-47
2022/12/05 08:28:59;;;;;;;48.53;17.00;;;;;;;;;;5069457;28;20048;-49
2022/12/05 08:31:27;;;;;;;41.65;16.33;;;;;;;;;;5068339;28;20075;-47
2022/12/05 08:33:55;;;;;;;42.15;16.77;;;;;;;;;;5069900;28;20040;-47
2022/12/05 08:36:25;;;;;;;60.63;19.90;;;;;;;;;;5068870;28;20057;-47
2022/12/05 08:38:55;;;;;;;41.63;15.98;;;;;;;;;;5071158;28;20048;-47
2022/12/05 08:41:27;;;;;;;45.47;16.83;;;;;;;;;;5077582;28;20053;-47
2022/12/05 08:43:54;;;;;;;40.60;16.73;;;;;;;;;;5069646;28;20418;-50
2022/12/05 08:46:21;;;;;;;58.75;21.23;;;;;;;;;;5070510;28;20105;-47
2022/12/05 08:48:47;;;;;;;43.65;15.65;;;;;;;;;;5069272;28;20116;-47
2022/12/05 08:51:14;;;;;;;54.03;17.83;;;;;;;;;;5070681;28;20481;-52
2022/12/05 08:53:40;;;;;;;41.60;16.33;;;;;;;;;;5071104;28;20037;-48
2022/12/05 08:56:10;;;;;;;43.65;16.42;;;;;;;;;;5069139;28;20045;-48
2022/12/05 08:58:37;;;;;;;40.17;17.02;;;;;;;;;;5070319;28;20037;-47
2022/12/05 09:01:07;;;;;;;58.10;18.35;;;;;;;;;;5070026;28;20523;-51
2022/12/05 09:03:34;;;;;;;41.50;16.27;;;;;;;;;;5070736;28;20476;-47
2022/12/05 09:06:04;;;;;;;41.63;16.60;;;;;;;;;;5070912;28;20060;-46
2022/12/05 09:08:31;;;;;;;50.03;18.83;;;;;;;;;;5069386;28;20040;-48
2022/12/05 09:10:57;;;;;;;47.20;17.67;;;;;;;;;;5067529;28;20047;-50
2022/12/05 09:13:24;;;;;;;48.00;18.40;;;;;;;;;;5068843;28;20127;-48
2022/12/05 09:15:51;;;;;;;43.35;17.23;;;;;;;;;;5070001;28;20040;-47
2022/12/05 09:18:17;;;;;;;59.45;18.55;;;;;;;;;;5069522;28;20569;-51
2022/12/05 09:20:44;;;;;;;44.28;17.27;;;;;;;;;;5070175;28;20076;-52
2022/12/05 09:23:10;;;;;;;51.10;18.13;;;;;;;;;;5070068;28;20540;-48
2022/12/05 09:25:41;;;;;;;56.40;19.55;;;;;;;;;;5070032;28;20052;-49
2022/12/05 09:28:07;;;;;;;52.55;19.42;;;;;;;;;;5070026;28;20044;-50
2022/12/05 09:30:34;;;;;;;46.25;17.80;;;;;;;;;;5068964;28;20046;-50
2022/12/05 09:33:01;;;;;;;60.63;21.55;;;;;;;;;;5070655;28;20041;-47
2022/12/05 09:35:27;;;;;;;47.95;18.92;;;;;;;;;;5069519;28;20041;-48
2022/12/05 09:37:55;;;;;;;39.17;18.00;;;;;;;;;;5069866;28;20041;-46
2022/12/05 09:40:22;;;;;;;49.25;17.70;;;;;;;;;;5068294;28;20465;-47
2022/12/05 09:42:56;;;;;;;43.22;16.23;;;;;;;;;;5069347;28;20041;-46
2022/12/05 09:45:32;;;;;;;60.65;20.27;;;;;;;;;;5067720;28;20045;-45
2022/12/05 09:48:08;;;;;;;55.10;20.00;;;;;;;;;;5069764;28;20094;-46
2022/12/05 09:50:37;;;;;;;45.92;19.48;;;;;;;;;;5069089;28;20040;-46
2022/12/05 09:53:04;;;;;;;49.40;18.05;;;;;;;;;;5068902;28;20052;-48
2022/12/05 09:55:36;;;;;;;44.90;18.50;;;;;;;;;;5068018;28;20488;-46
2022/12/05 09:58:04;;;;;;;43.60;17.63;;;;;;;;;;5067640;28;20039;-47
2022/12/05 10:00:31;;;;;;;66.85;21.08;;;;;;;;;;5069088;28;20136;-47
2022/12/05 10:03:16;;;;;;;54.72;20.55;;;;;;;;;;5070532;28;20036;-46
2022/12/05 10:05:49;;;;;;;58.53;21.42;;;;;;;;;;5068655;28;20052;-48
2022/12/05 10:08:22;;;;;;;47.40;18.35;;;;;;;;;;5069366;28;20047;-47
2022/12/05 10:10:49;;;;;;;;;;;;;;;;;;5064762;28;20115;-45
2022/12/05 10:13:34;;;;;;;47.28;20.42;;;;;;;;;;5068191;28;19920;-48
2022/12/05 10:16:03;;;;;;;62.28;24.00;;;;;;;;;;5060776;28;20048;-48
2022/12/05 10:18:32;;;;;;;86.60;25.10;;;;;;;;;;5068214;28;26926;-46
2022/12/05 10:21:08;;;;;;;44.10;18.83;;;;;;;;;;5070096;28;20416;-46
2022/12/05 10:23:43;;;;;;;51.05;19.88;;;;;;;;;;5068905;28;20047;-46
2022/12/05 10:26:44;;;;;;;53.70;20.55;;;;;;;;;;5066517;28;20079;-47
2022/12/05 10:29:11;;;;;;;48.42;19.70;;;;;;;;;;5067667;28;20040;-48
2022/12/05 10:31:38;;;;;;;46.15;19.77;;;;;;;;;;5068114;28;20067;-48
2022/12/05 10:34:13;;;;;;;56.08;20.75;;;;;;;;;;5060298;28;20045;-50
2022/12/05 10:36:43;;;;;;;64.00;20.38;;;;;;;;;;5068954;28;20361;-49
2022/12/05 10:39:10;;;;;;;53.78;20.40;;;;;;;;;;5065909;28;20037;-46
2022/12/05 10:41:37;;;;;;;52.60;20.27;;;;;;;;;;5067875;28;20028;-47
2022/12/05 10:44:03;;;;;;;49.92;19.77;;;;;;;;;;5068285;28;20043;-46
2022/12/05 10:46:30;;;;;;;53.70;20.40;;;;;;;;;;5068159;28;20602;-46
2022/12/05 10:48:58;;;;;;;61.08;20.88;;;;;;;;;;5067685;28;20047;-46
2022/12/05 10:51:26;;;;;;;56.55;20.98;;;;;;;;;;5068032;28;20047;-45
2022/12/05 10:54:01;;;;;;;51.35;18.95;;;;;;;;;;5069015;28;20040;-46
2022/12/05 10:56:45;;;;;;;47.60;20.48;;;;;;;;;;5065793;28;20055;-46
2022/12/05 10:59:13;;;;;;;59.78;20.92;;;;;;;;;;5067027;28;20135;-46
2022/12/05 11:01:46;;;;;;;53.97;21.60;;;;;;;;;;5060745;28;20036;-46
2022/12/05 11:04:25;;;;;;;62.60;21.63;;;;;;;;;;5066625;28;20037;-47
2022/12/05 11:06:59;;;;;;;46.10;18.98;;;;;;;;;;5067417;28;20572;-49
2022/12/05 11:09:27;;;;;;;59.83;20.98;;;;;;;;;;5066299;28;20048;-49
2022/12/05 11:12:06;;;;;;;51.38;20.08;;;;;;;;;;5066880;28;20045;-48
2022/12/05 11:14:34;;;;;;;47.17;20.30;;;;;;;;;;5066428;28;20521;-49
2022/12/05 11:17:02;;;;;;;63.13;21.25;;;;;;;;;;5067246;28;20044;-51
2022/12/05 11:19:32;;;;;;;57.97;21.10;;;;;;;;;;5066605;28;20459;-50
2022/12/05 11:21:58;;;;;;;55.90;22.10;;;;;;;;;;5067536;28;20515;-51
2022/12/05 11:24:27;;;;;;;70.88;23.33;;;;;;;;;;5068298;28;20511;-48
2022/12/05 11:26:54;;;;;;;50.03;19.58;;;;;;;;;;5068631;28;20115;-47
2022/12/05 11:29:37;;;;;;;43.22;18.98;;;;;;;;;;5067414;28;20969;-46
2022/12/05 11:32:05;;;;;;;65.88;22.92;;;;;;;;;;5067034;28;20047;-48
2022/12/05 11:34:36;;;;;;;70.18;23.95;;;;;;;;;;5063378;28;20115;-47
2022/12/05 11:37:14;;;;;;;60.15;22.92;;;;;;;;;;5066583;28;20070;-47
2022/12/05 11:39:40;;;;;;;58.80;22.88;;;;;;;;;;5067793;28;20048;-47
2022/12/05 11:42:15;;;;;;;56.55;24.02;;;;;;;;;;5068209;28;20498;-46
2022/12/05 11:44:48;;;;;;;61.63;23.55;;;;;;;;;;5068567;28;20067;-46
2022/12/05 11:47:33;;;;;;;69.78;25.48;;;;;;;;;;5067189;28;20110;-46
2022/12/05 11:50:05;;;;;;;71.63;24.50;;;;;;;;;;5065640;28;20115;-48
2022/12/05 11:52:53;;;;;;;58.30;23.95;;;;;;;;;;5066865;28;20052;-46
2022/12/05 11:55:31;;;;;;;63.83;23.60;;;;;;;;;;5065782;28;20044;-46
2022/12/05 11:57:58;;;;;;;66.93;23.02;;;;;;;;;;5064053;28;20080;-46
2022/12/05 12:00:30;;;;;;;69.32;23.02;;;;;;;;;;5067036;28;20048;-46
2022/12/05 12:02:57;;;;;;;55.05;21.13;;;;;;;;;;5067777;28;20043;-45
2022/12/05 12:05:36;;;;;;;53.25;19.67;;;;;;;;;;5067426;28;20041;-45
2022/12/05 12:08:02;;;;;;;79.60;22.92;;;;;;;;;;5066825;28;20068;-45
2022/12/05 12:10:46;;;;;;;55.65;21.67;;;;;;;;;;5070643;28;20044;-46
2022/12/05 12:13:18;;;;;;;57.17;22.75;;;;;;;;;;5068248;28;20036;-48
2022/12/05 12:16:04;;;;;;;49.60;19.20;;;;;;;;;;5079009;28;20138;-48
2022/12/05 12:18:46;;;;;;;49.45;18.52;;;;;;;;;;5069609;28;20484;-46
2022/12/05 12:21:18;;;;;;;49.05;19.02;;;;;;;;;;5071534;28;20048;-46
2022/12/05 12:23:45;;;;;;;50.43;19.77;;;;;;;;;;5071645;28;20400;-47
2022/12/05 12:26:23;;;;;;;53.83;21.00;;;;;;;;;;5069652;28;20512;-49
2022/12/05 12:29:00;;;;;;;53.78;19.90;;;;;;;;;;5067264;28;20036;-47
2022/12/05 12:31:35;;;;;;;59.40;21.23;;;;;;;;;;5069982;28;20551;-47
2022/12/05 12:34:02;;;;;;;51.10;19.35;;;;;;;;;;5066879;28;20690;-47
2022/12/05 12:36:32;;;;;;;59.45;22.25;;;;;;;;;;5070114;28;20052;-46
2022/12/05 12:39:13;;;;;;;48.50;20.98;;;;;;;;;;5071374;28;20041;-47
2022/12/05 12:41:43;;;;;;;53.83;21.50;;;;;;;;;;5070443;28;20414;-46
2022/12/05 12:44:13;;;;;;;53.10;20.58;;;;;;;;;;5068381;28;20408;-45
2022/12/05 12:46:49;;;;;;;64.20;23.33;;;;;;;;;;5069854;28;20048;-46
2022/12/05 12:49:24;;;;;;;66.05;23.23;;;;;;;;;;5067413;28;20047;-48
2022/12/05 12:51:52;;;;;;;61.75;23.75;;;;;;;;;;5068218;28;20043;-46
2022/12/05 12:54:35;;;;;;;63.53;23.10;;;;;;;;;;5069269;28;20036;-49
2022/12/05 12:57:21;;;;;;;62.28;23.30;;;;;;;;;;5059155;28;20032;-49
2022/12/05 12:59:49;;;;;;;45.35;21.15;;;;;;;;;;5070625;28;20037;-48
2022/12/05 13:02:25;;;;;;;65.28;22.92;;;;;;;;;;5068489;28;20131;-48
2022/12/05 13:04:56;;;;;;;63.92;23.35;;;;;;;;;;5069848;28;20043;-47
2022/12/05 13:07:33;;;;;;;71.55;25.48;;;;;;;;;;5066234;28;20045;-46
2022/12/05 13:10:26;;;;;;;59.15;22.92;;;;;;;;;;5068485;28;20131;-47
2022/12/05 13:12:54;;;;;;;62.30;22.77;;;;;;;;;;5064782;28;20049;-46
2022/12/05 13:15:32;;;;;;;57.40;22.67;;;;;;;;;;5067809;28;20036;-47
2022/12/05 13:17:58;;;;;;;70.60;22.48;;;;;;;;;;5069542;28;20056;-46
2022/12/05 13:20:26;;;;;;;59.85;22.98;;;;;;;;;;5069523;28;20121;-48
2022/12/05 13:22:54;;;;;;;53.35;22.15;;;;;;;;;;5069896;28;20497;-47
2022/12/05 13:25:23;;;;;;;63.03;21.83;;;;;;;;;;5068458;28;20106;-46
2022/12/05 13:28:13;;;;;;;52.72;22.98;;;;;;;;;;5070075;28;20500;-46
2022/12/05 13:30:56;;;;;;;63.25;24.67;;;;;;;;;;5069190;28;20462;-48
2022/12/05 13:33:24;;;;;;;72.63;24.38;;;;;;;;;;5069414;28;20102;-50
2022/12/05 13:44:33;;;;;;;68.45;24.42;;;;;;;;;;5068120;28;20064;-47
2022/12/05 13:47:01;;;;;;;58.58;23.40;;;;;;;;;;5068946;28;20508;-46
2022/12/05 13:49:35;;;;;;;61.00;23.60;;;;;;;;;;5067903;28;20032;-45
2022/12/05 13:52:06;;;;;;;61.50;23.17;;;;;;;;;;5068739;28;20044;-49
2022/12/05 13:54:34;;;;;;;75.07;25.55;;;;;;;;;;5069106;28;20040;-46
2022/12/05 13:57:01;;;;;;;58.38;22.05;;;;;;;;;;5068623;28;20802;-47
2022/12/05 13:59:46;;;;;;;55.38;21.55;;;;;;;;;;5069308;28;20040;-49
2022/12/05 14:02:31;;;;;;;71.45;23.92;;;;;;;;;;5066728;28;20049;-47
2022/12/05 14:04:57;;;;;;;57.10;22.17;;;;;;;;;;5065561;28;20447;-48
2022/12/05 14:07:38;;;;;;;60.97;23.23;;;;;;;;;;5068309;28;20055;-46
2022/12/05 14:10:05;;;;;;;74.85;25.23;;;;;;;;;;5068574;28;20040;-46
2022/12/05 14:12:51;;;;;;;88.93;27.23;;;;;;;;;;5068654;28;20040;-49
2022/12/05 14:15:24;;;;;;;82.65;29.10;;;;;;;;;;5068494;28;20048;-48
2022/12/05 14:18:10;;;;;;;71.35;27.45;;;;;;;;;;5067184;28;20055;-46
2022/12/05 14:20:45;;;;;;;57.45;24.73;;;;;;;;;;5068249;28;20049;-48
2022/12/05 14:23:19;;;;;;;61.08;24.33;;;;;;;;;;5068095;28;20071;-47
2022/12/05 14:26:04;;;;;;;60.72;24.85;;;;;;;;;;5065595;28;20409;-51
2022/12/05 14:28:41;;;;;;;68.38;25.13;;;;;;;;;;5066796;28;20094;-50
2022/12/05 14:31:33;;;;;;;70.78;28.42;;;;;;;;;;5064713;28;20057;-47
2022/12/05 14:34:14;;;;;;;66.88;27.38;;;;;;;;;;5067862;28;20045;-47
2022/12/05 14:37:06;;;;;;;59.78;25.00;;;;;;;;;;5068369;28;20033;-48
2022/12/05 14:39:36;;;;;;;89.40;28.25;;;;;;;;;;5067073;28;20052;-48
2022/12/05 14:42:04;;;;;;;70.05;26.60;;;;;;;;;;5057023;28;20053;-46
2022/12/05 14:44:31;;;;;;;73.65;25.33;;;;;;;;;;5067509;28;20040;-46
2022/12/05 14:47:02;;;;;;;63.50;27.30;;;;;;;;;;5068073;28;20040;-47
2022/12/05 14:49:49;;;;;;;68.55;23.25;;;;;;;;;;5065742;28;20049;-46
2022/12/05 14:52:18;;;;;;;64.50;25.20;;;;;;;;;;5066325;28;20047;-47
2022/12/05 14:54:48;;;;;;;63.20;24.77;;;;;;;;;;5067092;28;20046;-46